Fallbrook, CA

7:00 AM PST en Marzo 03, 2015 (GMT -0800)
Live Oak Park Rd. | Change Station
CLOSE
Current Station
Estación meteorológica personal
Location: Fallbrook, CA
Altura: 880 ft
Estaciones meteorológicas cercanas

Alt 880 ft 33.38 °N, 117.21 °W | Updated 60 seconds ago

Despejado
Despejado
47.1 ° F
Sensación térmica 44 ° F
N
6.5
Viento Variable Viento desde Norte
Gusts 7.6 mph

Hoy
Alta -- | Baja -- ° F
--% Posibilidad de precipitaciones
Ayer
Alta -- | Baja -- ° F
Precip. -- pul
6:14 AM 5:47 PM
Gibosa creciente, 96% visible
Presión 29.95 pul
Visibilidad 9.0 Millas
Nubes Baja 10000 ft
Vientos helados 44 ° F
Punto de rocío 42 ° F
Humedad 81%
Precipitaciones 0.00 pul
Espesor de la nieve No disponible.
UV 0 de una escala de 12
Polen 7.90 de una escala de 12
Calidad del aire No disponible.
Flu Activity No disponible.
METAR KNFG 031454Z 02003KT 9SM FEW100 08/04 A2995 RMK AO2 SLP142 T00780039 53008

More Conditions Fewer Conditions

Presión 29.95 pul
Visibilidad 9.0 Millas
Nubes Baja 10000 ft
Vientos helados 44 ° F
Punto de rocío 42 ° F
Humedad 81%
Precipitaciones 0.00 pul
Espesor de la nieve No disponible.
UV 0 de una escala de 12
Polen 7.90 de una escala de 12
Calidad del aire No disponible.
Flu Activity No disponible.
METAR KNFG 031454Z 02003KT 9SM FEW100 08/04 A2995 RMK AO2 SLP142 T00780039 53008

More Conditions Fewer Conditions

10-Day Weather Forecast

Almanac

Astronomía

Mar. 03, 2015 Salida Puesta
Hora real
Crepúsculo civil
Crepúsculo náutico
Crepúsculo astronómico
Luna
Horas de luz
Horas de luz
Tomorrow will be .
, % of the Moon is Illuminated

Extremos de hoy

Máximos del estado Bajos del estado

Community

WunderPhotos

Upload Photos

1,802,133 ¡fotos cargadas!

WunderBlogs® & News

Nearby

Calidad del aire

  Calidad del aire Índice AQ Contaminante
Not available.

Grosos de nieve

Estación Profundido Altura

Actividad de terremotos

Ciudad Distance Mag. Tiempo y dato
Magnitud mínima muestra es 2,5.

Temperaturas de aguas costeras

Lugar Temperatura

Estaciones meteorológicas cercanas